createdAt,value
2022-08-25T00:01:33.204Z,5.68
2022-08-25T00:04:02.780Z,6.25
2022-08-25T00:06:30.871Z,6.13
2022-08-25T00:08:59.942Z,13.63
2022-08-25T00:11:32.079Z,50.13
2022-08-25T00:14:04.530Z,59.85
2022-08-25T00:16:32.594Z,72.60
2022-08-25T00:19:03.376Z,72.93
2022-08-25T00:21:32.045Z,45.50
2022-08-25T00:24:02.356Z,36.75
2022-08-25T00:26:30.752Z,30.98
2022-08-25T00:29:02.037Z,53.58
2022-08-25T00:31:38.231Z,21.02
2022-08-25T00:34:12.986Z,15.23
2022-08-25T00:36:40.661Z,28.35
2022-08-25T00:39:10.447Z,9.88
2022-08-25T00:41:40.941Z,12.40
2022-08-25T00:44:11.397Z,7.60
2022-08-25T00:46:51.392Z,10.93
2022-08-25T00:49:36.233Z,4.57
2022-08-25T00:52:03.502Z,3.67
2022-08-25T00:54:35.804Z,3.17
2022-08-25T00:57:05.606Z,3.22
2022-08-25T00:59:34.356Z,3.40
2022-08-25T01:02:03.041Z,3.90
2022-08-25T01:04:30.740Z,2.67
2022-08-25T01:06:59.426Z,3.30
2022-08-25T01:09:28.860Z,3.13
2022-08-25T01:11:56.822Z,3.55
2022-08-25T01:14:25.636Z,3.33
2022-08-25T01:16:54.346Z,3.05
2022-08-25T01:19:22.092Z,3.50
2022-08-25T01:21:51.541Z,3.72
2022-08-25T01:24:40.902Z,4.03
2022-08-25T01:27:09.778Z,3.65
2022-08-25T01:29:39.778Z,3.03
2022-08-25T01:32:11.021Z,3.83
2022-08-25T01:34:43.227Z,3.55
2022-08-25T01:37:13.365Z,2.63
2022-08-25T01:39:42.913Z,2.75
2022-08-25T01:42:12.765Z,3.72
2022-08-25T01:44:43.857Z,3.13
2022-08-25T01:47:12.752Z,3.38
2022-08-25T01:49:39.973Z,3.03
2022-08-25T01:52:11.393Z,3.30
2022-08-25T01:54:38.774Z,2.67
2022-08-25T01:57:05.976Z,3.30
2022-08-25T01:59:33.195Z,3.35
2022-08-25T02:02:00.497Z,3.88
2022-08-25T02:04:32.439Z,2.67
2022-08-25T02:07:02.283Z,3.60
2022-08-25T02:09:29.925Z,2.35
2022-08-25T02:11:57.196Z,2.00
2022-08-25T02:14:24.647Z,3.60
2022-08-25T02:16:56.489Z,2.95
2022-08-25T02:19:26.053Z,2.47
2022-08-25T02:21:53.918Z,3.13
2022-08-25T02:24:21.311Z,2.25
2022-08-25T02:26:48.940Z,3.20
2022-08-25T02:29:17.005Z,3.22
2022-08-25T02:34:12.431Z,2.20
2022-08-25T02:36:40.461Z,4.05
2022-08-25T02:39:09.388Z,3.20
2022-08-25T02:41:38.941Z,2.40
2022-08-25T02:44:08.014Z,3.28
2022-08-25T02:46:36.943Z,1.90
2022-08-25T02:49:05.211Z,3.72
2022-08-25T02:51:36.312Z,2.50
2022-08-25T02:54:05.433Z,2.55
2022-08-25T02:56:34.465Z,3.33
2022-08-25T02:59:02.556Z,2.92
2022-08-25T03:01:32.734Z,3.15
2022-08-25T03:04:02.241Z,3.63
2022-08-25T03:06:30.517Z,3.70
2022-08-25T03:08:58.195Z,3.03
2022-08-25T03:11:26.527Z,2.55
2022-08-25T03:18:49.069Z,3.28
2022-08-25T03:21:16.879Z,2.15
2022-08-25T03:23:45.576Z,2.45
2022-08-25T03:26:31.894Z,2.80
2022-08-25T03:29:01.681Z,2.53
2022-08-25T03:31:28.792Z,2.55
2022-08-25T03:33:56.290Z,3.30
2022-08-25T03:36:27.410Z,3.10
2022-08-25T03:38:54.824Z,2.38
2022-08-25T03:41:27.938Z,2.50
2022-08-25T03:43:57.811Z,3.38
2022-08-25T03:46:34.104Z,3.25
2022-08-25T03:49:03.257Z,4.60
2022-08-25T03:51:35.690Z,2.80
2022-08-25T03:54:06.366Z,4.15
2022-08-25T03:56:34.243Z,4.03
2022-08-25T03:59:01.716Z,3.78
2022-08-25T04:01:37.474Z,3.00
2022-08-25T04:04:14.391Z,4.47
2022-08-25T04:06:51.467Z,2.95
2022-08-25T04:09:20.586Z,2.85
2022-08-25T04:11:49.290Z,3.00
2022-08-25T04:14:22.437Z,3.28
2022-08-25T04:16:50.450Z,3.35
2022-08-25T04:19:24.752Z,3.60
2022-08-25T04:24:35.016Z,4.47
2022-08-25T04:27:03.378Z,4.05
2022-08-25T04:31:57.383Z,3.55
2022-08-25T04:34:29.432Z,3.10
2022-08-25T04:36:59.101Z,4.65
2022-08-25T04:39:26.366Z,3.10
2022-08-25T04:41:56.183Z,3.00
2022-08-25T04:44:23.671Z,4.10
2022-08-25T04:47:05.050Z,3.50
2022-08-25T04:49:35.164Z,3.33
2022-08-25T04:52:06.051Z,3.75
2022-08-25T04:54:47.477Z,4.68
2022-08-25T04:57:14.877Z,3.50
2022-08-25T04:59:43.369Z,3.63
2022-08-25T05:02:14.654Z,3.28
2022-08-25T05:04:42.897Z,4.20
2022-08-25T05:07:12.924Z,2.92
2022-08-25T05:09:40.107Z,3.35
2022-08-25T05:12:12.736Z,3.30
2022-08-25T05:14:42.504Z,4.40
2022-08-25T05:17:09.874Z,2.38
2022-08-25T05:19:42.462Z,3.88
2022-08-25T05:22:10.446Z,3.58
2022-08-25T05:24:41.042Z,3.58
2022-08-25T05:27:08.008Z,2.67
2022-08-25T05:29:34.990Z,3.63
2022-08-25T05:32:02.417Z,3.80
2022-08-25T05:34:32.343Z,3.30
2022-08-25T05:37:15.051Z,2.75
2022-08-25T05:39:42.312Z,3.17
2022-08-25T05:42:12.501Z,2.38
2022-08-25T05:44:44.153Z,2.65
2022-08-25T05:47:20.821Z,4.75
2022-08-25T05:49:51.262Z,3.45
2022-08-25T05:52:20.297Z,3.78
2022-08-25T05:54:50.506Z,6.72
2022-08-25T05:57:17.695Z,2.78
2022-08-25T05:59:48.026Z,3.22
2022-08-25T06:02:35.957Z,3.90
2022-08-25T06:05:03.488Z,2.50
2022-08-25T06:07:36.402Z,3.03
2022-08-25T06:10:08.378Z,3.30
2022-08-25T06:12:39.646Z,2.97
2022-08-25T06:15:08.314Z,3.22
2022-08-25T06:17:43.084Z,3.58
2022-08-25T06:20:16.417Z,2.75
2022-08-25T06:22:49.218Z,2.17
2022-08-25T06:25:21.056Z,3.28
2022-08-25T06:27:48.564Z,2.40
2022-08-25T06:30:24.062Z,3.30
2022-08-25T06:32:53.016Z,2.78
2022-08-25T06:35:24.754Z,2.22
2022-08-25T06:40:29.604Z,2.00
2022-08-25T06:42:57.227Z,2.63
2022-08-25T06:45:25.315Z,2.20
2022-08-25T06:47:57.975Z,2.92
2022-08-25T06:50:28.213Z,1.85
2022-08-25T06:52:55.279Z,2.42
2022-08-25T06:55:22.448Z,2.40
2022-08-25T06:57:54.158Z,3.10
2022-08-25T07:00:30.324Z,2.63
2022-08-25T07:03:01.183Z,3.00
2022-08-25T07:05:40.845Z,3.05
2022-08-25T07:08:28.274Z,2.97
2022-08-25T07:10:55.959Z,3.08
2022-08-25T07:13:24.845Z,3.72
2022-08-25T07:15:56.225Z,3.58
2022-08-25T07:18:23.309Z,4.07
2022-08-25T07:20:54.082Z,2.63
2022-08-25T07:26:39.188Z,2.20
2022-08-25T07:29:15.185Z,3.33
2022-08-25T07:31:42.392Z,4.25
2022-08-25T07:34:33.138Z,4.00
2022-08-25T07:39:55.527Z,3.38
2022-08-25T07:42:25.547Z,3.80
2022-08-25T07:44:54.523Z,3.30
2022-08-25T07:47:21.610Z,3.50
2022-08-25T07:49:50.179Z,3.90
2022-08-25T07:52:17.436Z,3.75
2022-08-25T07:54:44.716Z,2.10
2022-08-25T07:57:14.261Z,2.45
2022-08-25T07:59:42.640Z,3.33
2022-08-25T08:04:51.177Z,2.42
2022-08-25T08:07:41.868Z,3.92
2022-08-25T08:10:42.193Z,3.05
2022-08-25T08:13:02.061Z,2.72
2022-08-25T08:15:30.556Z,2.63
2022-08-25T08:18:24.587Z,4.20
2022-08-25T08:21:19.250Z,2.28
2022-08-25T08:26:48.310Z,3.00
2022-08-25T08:29:20.860Z,3.28
2022-08-25T08:31:49.862Z,4.15
2022-08-25T08:34:18.140Z,3.95
2022-08-25T08:36:46.041Z,3.97
2022-08-25T08:39:14.341Z,4.93
2022-08-25T08:42:17.304Z,3.10
2022-08-25T08:45:02.603Z,2.00
2022-08-25T08:48:09.232Z,4.22
2022-08-25T08:51:01.071Z,4.72
2022-08-25T08:53:46.703Z,3.47
2022-08-25T08:56:25.831Z,4.10
2022-08-25T08:59:13.234Z,3.28
2022-08-25T09:02:00.306Z,3.83
2022-08-25T09:05:05.698Z,4.30
2022-08-25T09:07:55.060Z,6.15
2022-08-25T09:10:26.523Z,4.85
2022-08-25T09:13:26.275Z,4.88
2022-08-25T09:16:31.951Z,5.63
2022-08-25T09:19:04.493Z,4.95
2022-08-25T09:21:49.607Z,4.82
2022-08-25T09:24:32.121Z,4.45
2022-08-25T09:27:20.063Z,5.18
2022-08-25T09:30:07.156Z,4.25
2022-08-25T09:32:48.753Z,3.90
2022-08-25T09:35:22.814Z,4.75
2022-08-25T09:38:01.825Z,4.82
2022-08-25T09:40:36.768Z,4.88
2022-08-25T09:43:18.155Z,3.88
2022-08-25T09:45:49.060Z,4.47
2022-08-25T09:48:40.787Z,4.45
2022-08-25T09:51:42.233Z,4.47
2022-08-25T09:57:01.963Z,5.68
2022-08-25T09:59:37.176Z,5.93
2022-08-25T10:05:23.175Z,3.97
2022-08-25T10:10:41.877Z,4.40
2022-08-25T10:13:22.891Z,4.78
2022-08-25T10:16:24.577Z,5.10
2022-08-25T10:19:12.826Z,5.75
2022-08-25T10:21:43.616Z,5.43
2022-08-25T10:27:29.190Z,3.10
2022-08-25T10:30:04.464Z,3.83
2022-08-25T10:33:11.988Z,3.22
2022-08-25T10:36:06.808Z,2.03
2022-08-25T10:38:51.720Z,3.65
2022-08-25T10:41:53.766Z,3.92
2022-08-25T10:44:52.883Z,3.08
2022-08-25T10:47:58.236Z,1.83
2022-08-25T10:53:43.888Z,2.42
2022-08-25T10:57:14.539Z,2.72
2022-08-25T10:59:54.707Z,3.00
2022-08-25T11:03:12.007Z,2.08
2022-08-25T11:05:51.629Z,3.25
2022-08-25T11:08:37.262Z,2.78
2022-08-25T11:11:31.309Z,2.20
2022-08-25T11:14:11.072Z,2.53
2022-08-25T11:17:31.937Z,2.50
2022-08-25T11:20:07.484Z,3.05
2022-08-25T11:22:53.756Z,2.95
2022-08-25T11:25:35.945Z,2.40
2022-08-25T11:28:35.501Z,1.75
2022-08-25T11:31:06.532Z,2.53
2022-08-25T11:33:51.014Z,2.78
2022-08-25T11:36:29.368Z,2.15
2022-08-25T11:39:12.319Z,2.10
2022-08-25T11:41:47.127Z,1.70
2022-08-25T11:44:53.750Z,2.50
2022-08-25T11:48:13.071Z,2.13
2022-08-25T11:51:13.323Z,1.67
2022-08-25T11:53:47.464Z,2.38
2022-08-25T11:56:35.094Z,2.08
2022-08-25T11:59:05.597Z,2.10
2022-08-25T12:01:43.297Z,2.67
2022-08-25T12:04:44.450Z,2.50
2022-08-25T12:07:20.684Z,2.70
2022-08-25T12:09:55.071Z,2.13
2022-08-25T12:12:51.258Z,2.38
2022-08-25T12:15:23.828Z,2.03
2022-08-25T12:18:12.551Z,2.30
2022-08-25T12:21:06.171Z,2.10
2022-08-25T12:23:44.974Z,2.80
2022-08-25T12:26:40.817Z,2.00
2022-08-25T12:29:15.278Z,1.83
2022-08-25T12:31:57.482Z,2.45
2022-08-25T12:34:50.072Z,1.63
2022-08-25T12:37:27.823Z,1.63
2022-08-25T12:40:00.901Z,1.65
2022-08-25T12:45:41.567Z,1.70
2022-08-25T12:48:26.917Z,2.13
2022-08-25T12:51:03.740Z,2.00
2022-08-25T12:53:48.160Z,1.42
2022-08-25T12:56:39.079Z,1.92
2022-08-25T12:59:18.706Z,2.08
2022-08-25T13:02:23.196Z,1.83
2022-08-25T13:05:06.083Z,1.52
2022-08-25T13:11:01.252Z,2.25
2022-08-25T13:13:58.594Z,1.27
2022-08-25T13:16:29.614Z,2.03
2022-08-25T13:18:59.667Z,2.00
2022-08-25T13:21:37.238Z,2.47
2022-08-25T13:24:28.435Z,1.58
2022-08-25T13:26:59.440Z,1.70
2022-08-25T13:29:35.415Z,1.67
2022-08-25T13:32:14.502Z,1.63
2022-08-25T13:34:45.345Z,1.38
2022-08-25T13:37:33.492Z,1.80
2022-08-25T13:40:29.445Z,1.33
2022-08-25T13:43:17.875Z,1.90
2022-08-25T13:45:55.169Z,1.58
2022-08-25T13:49:02.637Z,2.20
2022-08-25T13:55:00.772Z,2.28
2022-08-25T14:00:59.450Z,2.15
2022-08-25T14:03:38.175Z,2.50
2022-08-25T14:06:23.906Z,1.98
2022-08-25T14:09:02.502Z,2.53
2022-08-25T14:11:45.130Z,1.70
2022-08-25T14:14:33.772Z,1.70
2022-08-25T14:17:16.342Z,1.88
2022-08-25T14:20:19.812Z,1.98
2022-08-25T14:23:21.566Z,2.17
2022-08-25T14:25:59.133Z,1.48
2022-08-25T14:28:30.384Z,1.75
2022-08-25T14:31:27.905Z,1.67
2022-08-25T14:34:01.091Z,1.90
2022-08-25T14:36:34.185Z,1.70
2022-08-25T14:39:08.612Z,1.67
2022-08-25T14:41:39.373Z,2.08
2022-08-25T14:44:07.545Z,2.00
2022-08-25T14:46:51.961Z,2.25
2022-08-25T14:49:25.128Z,1.27
2022-08-25T14:51:56.454Z,2.28
2022-08-25T14:54:26.723Z,2.08
2022-08-25T14:56:54.028Z,1.90
2022-08-25T14:59:22.458Z,1.98
2022-08-25T15:01:50.545Z,1.45
2022-08-25T15:04:27.611Z,1.92
2022-08-25T15:07:22.312Z,1.80
2022-08-25T15:09:56.529Z,1.63
2022-08-25T15:12:46.890Z,2.15
2022-08-25T15:15:24.233Z,1.83
2022-08-25T15:18:01.258Z,1.63
2022-08-25T15:20:38.025Z,1.80
2022-08-25T15:23:16.461Z,1.52
2022-08-25T15:25:46.095Z,1.50
2022-08-25T15:28:21.816Z,2.65
2022-08-25T15:31:10.429Z,1.52
2022-08-25T15:33:42.375Z,2.13
2022-08-25T15:36:15.188Z,1.88
2022-08-25T15:38:48.255Z,2.83
2022-08-25T15:41:34.195Z,1.77
2022-08-25T15:44:25.100Z,2.17
2022-08-25T15:47:02.339Z,2.35
2022-08-25T15:49:31.326Z,2.40
2022-08-25T15:52:07.963Z,1.85
2022-08-25T15:54:39.764Z,1.48
2022-08-25T15:57:08.897Z,1.95
2022-08-25T15:59:49.393Z,2.50
2022-08-25T16:02:37.637Z,2.30
2022-08-25T16:05:39.295Z,2.17
2022-08-25T16:08:38.510Z,3.30
2022-08-25T16:11:22.204Z,3.28
2022-08-25T16:14:08.758Z,3.42
2022-08-25T16:16:44.712Z,2.80
2022-08-25T16:26:32.116Z,2.25
2022-08-25T16:29:07.949Z,2.00
2022-08-25T16:31:53.495Z,1.83
2022-08-25T16:34:56.055Z,2.10
2022-08-25T16:37:25.292Z,2.28
2022-08-25T16:40:03.399Z,2.70
2022-08-25T16:42:42.217Z,2.30
2022-08-25T16:45:15.405Z,2.28
2022-08-25T16:50:20.598Z,2.17
2022-08-25T16:53:07.778Z,1.50
2022-08-25T16:55:38.927Z,2.55
2022-08-25T16:58:08.039Z,2.70
2022-08-25T17:00:38.975Z,2.40
2022-08-25T17:03:08.317Z,2.72
2022-08-25T17:05:49.691Z,2.20
2022-08-25T17:08:29.359Z,2.30
2022-08-25T17:11:14.376Z,2.83
2022-08-25T17:13:53.341Z,2.90
2022-08-25T17:16:22.755Z,4.15
2022-08-25T17:18:55.232Z,4.03
2022-08-25T17:21:32.676Z,4.55
2022-08-25T17:27:01.524Z,5.35
2022-08-25T17:29:36.433Z,5.47
2022-08-25T17:32:06.703Z,6.57
2022-08-25T17:34:55.541Z,4.65
2022-08-25T17:37:26.373Z,5.28
2022-08-25T17:39:57.442Z,5.47
2022-08-25T17:42:31.321Z,5.88
2022-08-25T17:48:14.905Z,6.63
2022-08-25T17:50:44.611Z,7.65
2022-08-25T17:53:14.379Z,7.28
2022-08-25T17:55:45.234Z,7.47
2022-08-25T17:58:15.150Z,6.25
2022-08-25T18:00:45.873Z,6.75
2022-08-25T18:03:15.764Z,6.10
2022-08-25T18:05:53.866Z,6.95
2022-08-25T18:08:32.085Z,6.72
2022-08-25T18:11:06.570Z,6.18
2022-08-25T18:13:36.143Z,7.57
2022-08-25T18:16:04.213Z,6.80
2022-08-25T18:18:31.833Z,6.78
2022-08-25T18:20:59.828Z,5.90
2022-08-25T18:23:27.480Z,5.22
2022-08-25T18:26:00.921Z,6.03
2022-08-25T18:28:29.648Z,5.25
2022-08-25T18:30:56.854Z,5.32
2022-08-25T18:33:24.252Z,5.10
2022-08-25T18:35:52.236Z,5.53
2022-08-25T18:38:38.060Z,4.25
2022-08-25T18:41:10.848Z,5.10
2022-08-25T18:43:40.787Z,5.32
2022-08-25T18:46:08.273Z,5.38
2022-08-25T18:48:46.827Z,3.85
2022-08-25T18:51:16.668Z,5.65
2022-08-25T18:53:54.611Z,4.25
2022-08-25T18:56:30.373Z,4.03
2022-08-25T18:58:59.414Z,4.03
2022-08-25T19:01:32.002Z,4.20
2022-08-25T19:04:02.600Z,4.60
2022-08-25T19:06:31.206Z,4.10
2022-08-25T19:08:59.510Z,4.18
2022-08-25T19:11:30.566Z,3.47
2022-08-25T19:14:12.015Z,3.63
2022-08-25T19:16:41.636Z,3.42
2022-08-25T19:19:12.997Z,4.03
2022-08-25T19:22:00.630Z,3.15
2022-08-25T19:24:28.847Z,3.08
2022-08-25T19:29:30.511Z,3.38
2022-08-25T19:32:01.229Z,3.50
2022-08-25T19:34:35.928Z,2.90
2022-08-25T19:37:06.956Z,2.75
2022-08-25T19:39:39.217Z,2.53
2022-08-25T19:42:34.918Z,3.15
2022-08-25T19:45:01.105Z,2.63
2022-08-25T19:47:34.278Z,2.88
2022-08-25T19:50:01.520Z,3.10
2022-08-25T19:52:28.725Z,3.40
2022-08-25T19:54:58.921Z,3.25
2022-08-25T19:57:28.486Z,2.53
2022-08-25T20:00:16.725Z,2.72
2022-08-25T20:02:45.502Z,2.95
2022-08-25T20:05:14.966Z,2.35
2022-08-25T20:07:42.178Z,2.08
2022-08-25T20:10:16.945Z,3.03
2022-08-25T20:12:45.975Z,1.92
2022-08-25T20:15:14.597Z,2.20
2022-08-25T20:17:45.085Z,2.45
2022-08-25T20:20:15.491Z,2.40
2022-08-25T20:22:42.882Z,2.88
2022-08-25T20:25:14.138Z,3.72
2022-08-25T20:27:47.493Z,3.63
2022-08-25T20:30:22.400Z,3.38
2022-08-25T20:32:50.995Z,2.10
2022-08-25T20:35:19.347Z,2.20
2022-08-25T20:37:48.204Z,2.17
2022-08-25T20:40:25.418Z,2.15
2022-08-25T20:42:53.936Z,2.67
2022-08-25T20:47:50.696Z,2.17
2022-08-25T20:52:48.483Z,2.72
2022-08-25T20:55:18.853Z,2.25
2022-08-25T20:57:46.764Z,2.47
2022-08-25T21:02:43.255Z,1.48
2022-08-25T21:05:10.390Z,2.50
2022-08-25T21:07:37.776Z,1.88
2022-08-25T21:10:10.609Z,2.50
2022-08-25T21:12:41.697Z,2.70
2022-08-25T21:15:12.109Z,2.72
2022-08-25T21:17:39.689Z,2.50
2022-08-25T21:20:08.904Z,2.08
2022-08-25T21:22:37.835Z,2.30
2022-08-25T21:25:05.428Z,1.95
2022-08-25T21:27:34.129Z,2.00
2022-08-25T21:30:01.212Z,2.60
2022-08-25T21:32:28.209Z,3.05
2022-08-25T21:34:56.871Z,1.65
2022-08-25T21:38:22.220Z,2.67
2022-08-25T21:41:46.127Z,2.80
2022-08-25T21:44:13.947Z,3.00
2022-08-25T21:46:41.675Z,2.20
2022-08-25T21:49:20.791Z,2.40
2022-08-25T21:51:51.001Z,2.47
2022-08-25T21:54:27.251Z,2.53
2022-08-25T21:57:06.428Z,2.08
2022-08-25T21:59:37.050Z,2.90
2022-08-25T22:02:08.083Z,3.00
2022-08-25T22:04:38.889Z,4.18
2022-08-25T22:07:08.097Z,2.03
2022-08-25T22:09:36.074Z,3.80
2022-08-25T22:16:58.344Z,3.00
2022-08-25T22:19:26.537Z,3.58
2022-08-25T22:21:54.925Z,2.05
2022-08-25T22:24:22.302Z,2.50
2022-08-25T22:26:49.900Z,3.17
2022-08-25T22:29:24.992Z,2.85
2022-08-25T22:31:57.717Z,3.33
2022-08-25T22:34:31.670Z,3.22
2022-08-25T22:37:01.197Z,3.28
2022-08-25T22:39:29.134Z,4.35
2022-08-25T22:41:56.684Z,3.15
2022-08-25T22:44:25.690Z,3.47
2022-08-25T22:46:53.490Z,4.10
2022-08-25T22:49:21.964Z,4.00
2022-08-25T22:51:49.174Z,4.25
2022-08-25T22:54:16.574Z,3.47
2022-08-25T22:56:43.822Z,4.70
2022-08-25T22:59:12.697Z,5.10
2022-08-25T23:01:40.382Z,4.03
2022-08-25T23:04:07.799Z,6.65
2022-08-25T23:06:35.696Z,12.75
2022-08-25T23:09:05.361Z,7.15
2022-08-25T23:11:32.648Z,5.45
2022-08-25T23:14:05.692Z,4.50
2022-08-25T23:16:33.264Z,4.70
2022-08-25T23:19:00.800Z,7.05
2022-08-25T23:21:46.905Z,12.20
2022-08-25T23:24:30.007Z,57.53
2022-08-25T23:26:59.024Z,37.03
2022-08-25T23:29:27.765Z,18.88
2022-08-25T23:31:57.569Z,43.45
2022-08-25T23:34:26.100Z,8.80
2022-08-25T23:36:53.892Z,37.60
2022-08-25T23:39:21.771Z,12.15
2022-08-25T23:41:49.997Z,12.02
2022-08-25T23:44:19.164Z,8.40
2022-08-25T23:46:47.590Z,3.58
2022-08-25T23:49:18.566Z,4.70
2022-08-25T23:51:48.587Z,3.58
2022-08-25T23:54:17.333Z,4.20
2022-08-25T23:56:51.376Z,3.15
2022-08-25T23:59:24.595Z,3.40
